Time;durP1;ratioP1;P1;durP2;ratioP2;P2;SDS_P1;SDS_P2;PMS_P1;PMS_P2;Temp;Humidity;BMP_temperature;BMP_pressure;BME280_temperature;BME280_humidity;BME280_pressure;Samples;Min_cycle;Max_cycle;Signal;HPM_P1;HPM_P2
2022/05/21 00:00:41;;;;;;;;;;;;;;;9.71;100.00;100215.34;6157819;23;19908;-89
2022/05/21 00:03:09;;;;;;;;;;;;;;;9.64;100.00;100207.59;6184489;23;19923;-87
2022/05/21 00:05:44;;;;;;;;;;;;;;;9.60;100.00;100211.25;6183865;23;19912;-88
2022/05/21 00:08:09;;;;;;;;;;;;;;;9.37;100.00;100214.63;6159088;23;20288;-85
2022/05/21 00:10:42;;;;;;;;;;;;;;;9.79;100.00;100213.31;6187163;23;19912;-87
2022/05/21 00:16:00;;;;;;;;;;;;;;;9.61;100.00;100222.72;6123172;23;20013;-88
2022/05/21 00:18:31;;;;;;;;;;;;;;;9.43;100.00;100216.22;6122953;23;19917;-87
2022/05/21 00:20:59;;;;;;;;;;;;;;;9.36;100.00;100220.81;6158554;23;19912;-89
2022/05/21 00:23:31;;;;;;;;;;;;;;;9.47;100.00;100222.28;6158090;23;19960;-88
2022/05/21 00:26:06;;;;;;;;;;;;;;;9.57;100.00;100223.72;6184507;23;19916;-88
2022/05/21 00:28:32;;;;;;;;;;;;;;;9.31;100.00;100222.75;6184656;23;19930;-92
2022/05/21 00:30:58;;;;;;;;;;;;;;;9.38;100.00;100219.03;6186015;23;19920;-92
2022/05/21 00:33:24;;;;;;;;;;;;;;;9.51;100.00;100224.78;6186352;23;20287;-91
2022/05/21 00:35:50;;;;;;;;;;;;;;;9.42;100.00;100225.94;6159308;23;19919;-92
2022/05/21 00:38:15;;;;;;;;;;;;;;;9.61;100.00;100230.66;6185966;23;20316;-93
2022/05/21 00:40:41;;;;;;;;;;;;;;;9.44;100.00;100221.47;6159603;23;19931;-95
2022/05/21 00:43:13;;;;;;;;;;;;;;;9.33;100.00;100230.63;6159108;23;19979;-93
2022/05/21 00:45:39;;;;;;;;;;;;;;;9.25;100.00;100234.41;6185466;23;19912;-93
2022/05/21 00:48:04;;;;;;;;;;;;;;;9.54;100.00;100235.28;6186354;23;19919;-94
2022/05/21 00:50:29;;;;;;;;;;;;;;;9.22;100.00;100238.91;6159710;23;19975;-92
2022/05/21 00:53:11;;;;;;;;;;;;;;;9.44;100.00;100232.06;6186130;23;19913;-92
2022/05/21 03:39:12;;;;;;;;;;;;;;;;;;;;;
2022/05/21 03:41:50;;;;;;;;;;;;;;;;;;;;;
2022/05/21 03:44:28;;;;;;;;;;;;;;;;;;;;;
2022/05/21 03:46:57;;;;;;;;;;;;;;;8.73;99.40;100275.53;6216275;23;20301;-87
2022/05/21 03:49:24;;;;;;;;;;;;;;;8.80;99.63;100277.09;6216395;23;19958;-90
2022/05/21 03:51:50;;;;;;;;;;;;;;;8.81;99.89;100291.19;6190110;23;19990;-88
2022/05/21 03:54:15;;;;;;;;;;;;;;;8.98;99.92;100285.41;6189839;23;19954;-88
2022/05/21 03:56:50;;;;;;;;;;;;;;;8.90;99.73;100290.91;6215521;23;19915;-94
2022/05/21 03:59:26;;;;;;;;;;;;;;;8.81;100.00;100292.06;6216532;23;20226;-89
2022/05/21 04:01:52;;;;;;;;;;;;;;;8.89;99.87;100287.41;6182782;23;19920;-87
2022/05/21 04:04:17;;;;;;;;;;;;;;;8.81;100.00;100289.41;6183358;23;20007;-88
2022/05/21 04:06:42;;;;;;;;;;;;;;;8.71;100.00;100290.56;6183151;23;19966;-85
2022/05/21 04:09:08;;;;;;;;;;;;;;;8.88;100.00;100293.59;6183168;23;19920;-84
2022/05/21 04:11:33;;;;;;;;;;;;;;;9.12;99.98;100291.19;6181548;23;20419;-84
2022/05/21 04:13:58;;;;;;;;;;;;;;;8.86;99.65;100287.50;6183151;23;19920;-85
2022/05/21 04:16:23;;;;;;;;;;;;;;;8.82;100.00;100293.78;6182920;23;19919;-85
2022/05/21 04:18:49;;;;;;;;;;;;;;;8.85;100.00;100309.53;6158144;23;19913;-85
2022/05/21 04:21:14;;;;;;;;;;;;;;;8.77;100.00;100303.59;6183140;23;20050;-85
2022/05/21 04:23:39;;;;;;;;;;;;;;;8.94;100.00;100312.88;6183049;23;19912;-87
2022/05/21 04:26:04;;;;;;;;;;;;;;;9.08;100.00;100305.41;6181465;23;19955;-86
2022/05/21 04:28:30;;;;;;;;;;;;;;;9.10;100.00;100308.88;6182998;23;19916;-87
2022/05/21 04:30:55;;;;;;;;;;;;;;;9.11;100.00;100305.31;6182262;23;19917;-85
2022/05/21 04:33:20;;;;;;;;;;;;;;;8.88;100.00;100311.25;6206160;23;19967;-88
2022/05/21 04:38:32;;;;;;;;;;;;;;;8.82;100.00;100319.34;6215731;23;19923;-85
2022/05/21 04:40:57;;;;;;;;;;;;;;;9.18;100.00;100314.81;6213901;23;19916;-86
2022/05/21 04:43:22;;;;;;;;;;;;;;;9.11;100.00;100315.00;6215452;23;19919;-84
2022/05/21 04:45:47;;;;;;;;;;;;;;;9.07;100.00;100314.25;6215581;23;20004;-87
2022/05/21 04:48:13;;;;;;;;;;;;;;;8.82;100.00;100317.59;6215511;23;19991;-85
2022/05/21 04:50:38;;;;;;;;;;;;;;;8.86;100.00;100323.63;6215494;23;19919;-85
2022/05/21 04:53:04;;;;;;;;;;;;;;;8.58;100.00;100331.44;6215616;23;19912;-84
2022/05/21 04:55:29;;;;;;;;;;;;;;;8.65;100.00;100327.72;6213996;23;19912;-85
2022/05/21 04:57:55;;;;;;;;;;;;;;;8.55;100.00;100327.06;6215240;23;20046;-88
2022/05/21 05:00:20;;;;;;;;;;;;;;;8.55;100.00;100321.78;6215436;23;19916;-89
2022/05/21 05:02:45;;;;;;;;;;;;;;;8.83;100.00;100321.06;6215400;23;19958;-87
2022/05/21 05:05:11;;;;;;;;;;;;;;;8.75;100.00;100315.13;6215966;23;20043;-87
2022/05/21 05:07:38;;;;;;;;;;;;;;;8.77;100.00;100322.09;6215283;23;20347;-89
2022/05/21 05:10:03;;;;;;;;;;;;;;;8.59;100.00;100327.88;6215563;23;19919;-88
2022/05/21 06:40:17;;;;;;;;;;;;;;;8.39;100.00;100342.41;6185034;23;19928;-86
2022/05/21 06:42:46;;;;;;;;;;;;;;;8.35;100.00;100332.84;6183079;23;20253;-87
2022/05/21 06:45:12;;;;;;;;;;;;;;;8.54;100.00;100331.50;6208459;23;19921;-86
2022/05/21 06:47:37;;;;;;;;;;;;;;;8.27;100.00;100327.75;6184730;23;19927;-87
2022/05/21 06:50:03;;;;;;;;;;;;;;;8.25;100.00;100328.69;6184480;23;19927;-87
2022/05/21 06:52:30;;;;;;;;;;;;;;;8.23;100.00;100335.78;6183438;23;20023;-87
2022/05/21 06:54:55;;;;;;;;;;;;;;;8.25;100.00;100319.00;6185459;23;19912;-87
2022/05/21 06:57:26;;;;;;;;;;;;;;;8.23;100.00;100330.50;6186632;23;19920;-87
2022/05/21 06:59:51;;;;;;;;;;;;;;;8.32;100.00;100335.56;6186688;23;19963;-87
2022/05/21 07:02:16;;;;;;;;;;;;;;;8.23;100.00;100339.28;6186951;23;19920;-87
2022/05/21 07:07:35;;;;;;;;;;;;;;;8.45;100.00;100336.16;6184937;23;19922;-87
2022/05/21 07:10:02;;;;;;;;;;;;;;;8.33;100.00;100337.31;6186897;23;19916;-87
2022/05/21 07:12:28;;;;;;;;;;;;;;;8.34;100.00;100341.66;6210354;23;19916;-87
2022/05/21 07:14:53;;;;;;;;;;;;;;;8.31;100.00;100344.38;6186544;23;19919;-87
2022/05/21 07:17:18;;;;;;;;;;;;;;;8.30;100.00;100351.44;6184671;23;20443;-87
2022/05/21 07:19:44;;;;;;;;;;;;;;;8.25;100.00;100360.38;6186377;23;19916;-87
2022/05/21 07:22:10;;;;;;;;;;;;;;;8.25;100.00;100355.09;6184931;23;19919;-87
2022/05/21 07:24:44;;;;;;;;;;;;;;;8.15;100.00;100344.78;6185191;23;19992;-87
2022/05/21 07:27:13;;;;;;;;;;;;;;;8.22;100.00;100355.16;6210321;23;19912;-87
2022/05/21 07:29:39;;;;;;;;;;;;;;;8.13;100.00;100351.84;6209842;23;20304;-87
2022/05/21 07:32:14;;;;;;;;;;;;;;;8.26;100.00;100346.28;6185956;23;19923;-86
2022/05/21 07:34:39;;;;;;;;;;;;;;;8.72;100.00;100338.06;6210264;23;20242;-87
2022/05/21 07:37:04;;;;;;;;;;;;;;;8.54;100.00;100342.06;6183497;23;19932;-87
2022/05/21 07:39:30;;;;;;;;;;;;;;;8.59;100.00;100343.75;6189694;23;19987;-89
2022/05/21 07:41:55;;;;;;;;;;;;;;;8.56;100.00;100351.75;6216212;23;19916;-87
2022/05/21 07:44:20;;;;;;;;;;;;;;;8.36;100.00;100347.81;6216176;23;19970;-86
2022/05/21 07:46:46;;;;;;;;;;;;;;;8.41;100.00;100350.28;6216239;23;19912;-87
2022/05/21 07:49:11;;;;;;;;;;;;;;;8.66;100.00;100345.28;6216102;23;19916;-87
2022/05/21 07:51:37;;;;;;;;;;;;;;;8.83;100.00;100348.38;6189860;23;20228;-87
2022/05/21 07:54:02;;;;;;;;;;;;;;;8.69;100.00;100347.88;6188471;23;19947;-88
2022/05/21 07:56:29;;;;;;;;;;;;;;;8.40;100.00;100341.53;6189526;23;19912;-88
2022/05/21 07:58:55;;;;;;;;;;;;;;;8.49;100.00;100349.25;6216134;23;19954;-88
2022/05/21 08:01:20;;;;;;;;;;;;;;;8.48;100.00;100352.78;6215836;23;19911;-87
2022/05/21 08:03:46;;;;;;;;;;;;;;;8.71;100.00;100346.03;6216179;23;19912;-87
2022/05/21 08:06:11;;;;;;;;;;;;;;;8.47;100.00;100339.63;6214225;23;19916;-88
2022/05/21 08:08:37;;;;;;;;;;;;;;;8.41;100.00;100340.63;6188046;23;19916;-88
2022/05/21 08:11:03;;;;;;;;;;;;;;;8.58;100.00;100331.44;6216014;23;19919;-88
2022/05/21 08:13:28;;;;;;;;;;;;;;;8.49;100.00;100343.97;6214385;23;20415;-88
2022/05/21 08:15:53;;;;;;;;;;;;;;;8.49;100.00;100338.69;6214370;23;20329;-86
2022/05/21 08:18:19;;;;;;;;;;;;;;;8.58;100.00;100344.63;6189134;23;20240;-87
2022/05/21 08:20:44;;;;;;;;;;;;;;;8.58;100.00;100331.44;6215903;23;19923;-88
2022/05/21 08:28:41;;;;;;;;;;;;;;;8.26;100.00;100330.44;6215948;23;19919;-87
2022/05/21 08:31:12;;;;;;;;;;;;;;;8.21;100.00;100332.31;6215671;23;19916;-87
2022/05/21 08:33:37;;;;;;;;;;;;;;;8.22;100.00;100321.72;6216186;23;19916;-87
2022/05/21 08:36:03;;;;;;;;;;;;;;;8.26;100.00;100335.72;6215796;23;19908;-87
2022/05/21 08:38:28;;;;;;;;;;;;;;;8.42;100.00;100337.06;6213888;23;19955;-87
2022/05/21 08:41:12;;;;;;;;;;;;;;;8.54;100.00;100334.13;6189112;23;19919;-88
2022/05/21 08:43:37;;;;;;;;;;;;;;;8.53;100.00;100345.59;6214150;23;19931;-89
2022/05/21 08:46:17;;;;;;;;;;;;;;;8.34;100.00;100333.75;6214490;23;19934;-89
2022/05/21 08:48:49;;;;;;;;;;;;;;;8.47;100.00;100329.94;6214472;23;19916;-88
2022/05/21 08:51:18;;;;;;;;;;;;;;;10.12;100.00;100321.66;6189860;23;19965;-88
2022/05/21 08:56:54;;;;;;;;;;;;;;;9.24;100.00;100313.78;6008405;23;19921;-89
2022/05/21 09:02:15;;;;;;;;;;;;;;;8.86;100.00;100311.28;6063906;23;19953;-87
2022/05/21 09:05:00;;;;;;;;;;;;;;;8.82;100.00;100309.66;6098269;23;19913;-90
2022/05/21 09:07:48;;;;;;;;;;;;;;;8.80;100.00;100300.88;6140412;23;20045;-90
2022/05/21 09:10:29;;;;;;;;;;;;;;;8.71;100.00;100311.69;6216471;23;19911;-89
2022/05/21 09:18:42;;;;;;;;;;;;;;;8.48;100.00;100292.03;6218331;23;19923;-88
2022/05/21 09:21:10;;;;;;;;;;;;;;;8.46;100.00;100285.94;6191445;23;19912;-92
2022/05/21 09:23:52;;;;;;;;;;;;;;;8.42;100.00;100294.81;6188483;23;20293;-93
2022/05/21 09:26:19;;;;;;;;;;;;;;;8.33;100.00;100284.50;6216842;23;19924;-88
2022/05/21 09:28:45;;;;;;;;;;;;;;;8.27;100.00;100288.16;6217989;23;19912;-90
2022/05/21 09:31:11;;;;;;;;;;;;;;;8.31;100.00;100286.28;6218158;23;19916;-93
2022/05/21 09:33:47;;;;;;;;;;;;;;;8.19;100.00;100285.69;6190684;23;20232;-87
2022/05/21 09:36:21;;;;;;;;;;;;;;;8.23;100.00;100282.97;6189734;23;19928;-89
2022/05/21 09:38:54;;;;;;;;;;;;;;;8.34;100.00;100288.84;6215630;23;19916;-89
2022/05/21 09:41:26;;;;;;;;;;;;;;;8.29;100.00;100288.13;6191563;23;20023;-96
2022/05/21 09:46:46;;;;;;;;;;;;;;;8.37;100.00;100281.72;6216617;23;20371;-93
2022/05/21 09:49:26;;;;;;;;;;;;;;;8.43;100.00;100278.09;6216595;23;20015;-87
2022/05/21 09:51:55;;;;;;;;;;;;;;;8.40;100.00;100279.94;6213812;23;20332;-88
2022/05/21 09:54:22;;;;;;;;;;;;;;;8.46;100.00;100275.38;6214351;23;20062;-93
2022/05/21 09:56:48;;;;;;;;;;;;;;;8.36;100.00;100279.16;6213947;23;20034;-86
2022/05/21 09:59:15;;;;;;;;;;;;;;;8.34;100.00;100287.09;6214394;23;19923;-93
2022/05/21 10:01:48;;;;;;;;;;;;;;;8.32;100.00;100273.06;6213966;23;19947;-94
2022/05/21 10:04:36;;;;;;;;;;;;;;;8.39;100.00;100268.47;6189010;23;19916;-88
2022/05/21 10:07:15;;;;;;;;;;;;;;;8.33;100.00;100273.94;6157801;23;19962;-91
2022/05/21 10:12:45;;;;;;;;;;;;;;;8.38;100.00;100272.03;6215333;23;19951;-89
2022/05/21 10:15:10;;;;;;;;;;;;;;;8.32;100.00;100277.47;6215889;23;19950;-92
2022/05/21 10:18:09;;;;;;;;;;;;;;;;;;;;;
2022/05/21 10:23:12;;;;;;;;;;;;;;;8.46;100.00;100269.25;6203957;23;19912;-89
2022/05/21 10:26:00;;;;;;;;;;;;;;;;;;;;;
2022/05/21 10:29:02;;;;;;;;;;;;;;;8.41;100.00;100268.44;6217043;23;20309;-91
2022/05/21 10:31:57;;;;;;;;;;;;;;;8.30;100.00;100271.38;6215439;23;20331;-91
2022/05/21 10:34:43;;;;;;;;;;;;;;;8.30;100.00;100260.81;6214841;23;20294;-86
2022/05/21 10:37:17;;;;;;;;;;;;;;;8.35;100.00;100259.78;6214379;23;20327;-89
2022/05/21 10:40:07;;;;;;;;;;;;;;;8.46;100.00;100264.81;6215452;23;19923;-93
2022/05/21 10:42:38;;;;;;;;;;;;;;;8.36;100.00;100253.59;6216111;23;19998;-89
2022/05/21 10:45:10;;;;;;;;;;;;;;;8.40;100.00;100259.66;6188407;23;19928;-89
2022/05/21 10:47:41;;;;;;;;;;;;;;;8.46;100.00;100259.53;6215100;23;20435;-88
2022/05/21 10:50:28;;;;;;;;;;;;;;;8.36;100.00;100253.59;6215355;23;19927;-90
2022/05/21 10:53:23;;;;;;;;;;;;;;;;;;;;;
2022/05/21 10:55:57;;;;;;;;;;;;;;;8.54;100.00;100257.53;6215572;23;20003;-93
2022/05/21 10:58:32;;;;;;;;;;;;;;;8.44;100.00;100248.16;6213281;23;19912;-91
2022/05/21 11:01:12;;;;;;;;;;;;;;;8.44;100.00;100250.78;6215475;23;19990;-91
2022/05/21 11:03:47;;;;;;;;;;;;;;;;;;;;;
2022/05/21 11:06:15;;;;;;;;;;;;;;;8.48;100.00;100259.50;6215303;23;19991;-96
2022/05/21 11:08:58;;;;;;;;;;;;;;;8.44;100.00;100255.19;6212208;23;19916;-94
2022/05/21 11:11:42;;;;;;;;;;;;;;;8.40;100.00;100249.09;6216860;23;19939;-93
2022/05/21 11:14:43;;;;;;;;;;;;;;;8.38;100.00;100243.00;6217539;23;19999;-93
2022/05/21 11:17:29;;;;;;;;;;;;;;;8.37;100.00;100249.16;6096949;23;19917;-93
2022/05/21 11:19:58;;;;;;;;;;;;;;;8.40;100.00;100241.16;6211187;23;19995;-91
2022/05/21 11:22:50;;;;;;;;;;;;;;;8.86;100.00;100237.28;6191318;23;19919;-95
2022/05/21 11:25:25;;;;;;;;;;;;;;;9.39;100.00;100227.81;6216673;23;19912;-95
2022/05/21 11:27:50;;;;;;;;;;;;;;;9.10;100.00;100224.28;6190899;23;19919;-93
2022/05/21 11:30:19;;;;;;;;;;;;;;;8.75;100.00;100234.09;6217300;23;19912;-90
2022/05/21 11:38:26;;;;;;;;;;;;;;;8.56;100.00;100223.16;6215379;23;19938;-89
2022/05/21 11:47:15;;;;;;;;;;;;;;;8.53;100.00;100225.88;6154918;23;19919;-94
2022/05/21 11:49:50;;;;;;;;;;;;;;;9.22;100.00;100233.59;6157021;23;19913;-87
2022/05/21 11:52:30;;;;;;;;;;;;;;;9.60;100.00;100219.19;6184218;23;19912;-86
2022/05/21 11:55:02;;;;;;;;;;;;;;;9.03;100.00;100217.41;6217459;23;19908;-89
2022/05/21 11:57:36;;;;;;;;;;;;;;;9.39;100.00;100220.72;6219788;23;19919;-94
2022/05/21 12:00:14;;;;;;;;;;;;;;;9.79;100.00;100213.31;6220037;23;19919;-88
2022/05/21 12:03:09;;;;;;;;;;;;;;;;;;;;;
2022/05/21 12:05:34;;;;;;;;;;;;;;;9.50;100.00;100219.56;6219194;23;19994;-90
2022/05/21 12:08:22;;;;;;;;;;;;;;;;;;;;;
2022/05/21 12:11:04;;;;;;;;;;;;;;;9.74;100.00;100215.25;6218142;23;20408;-92
2022/05/21 12:13:35;;;;;;;;;;;;;;;9.48;100.00;100214.31;6216001;23;19967;-93
2022/05/21 12:16:44;;;;;;;;;;;;;;;9.90;100.00;100211.16;6216593;23;19966;-91
2022/05/21 12:19:32;;;;;;;;;;;;;;;9.76;100.00;100213.41;6219149;23;19911;-89
2022/05/21 12:22:18;;;;;;;;;;;;;;;;;;;;;
2022/05/21 12:27:47;;;;;;;;;;;;;;;9.91;100.00;100194.38;6125835;23;19948;-95
2022/05/21 12:30:49;;;;;;;;;;;;;;;;;;;;;
2022/05/21 12:36:29;;;;;;;;;;;;;;;10.14;100.00;100187.44;6159292;23;19908;-92
2022/05/21 12:38:55;;;;;;;;;;;;;;;9.52;100.00;100184.19;6217999;23;19959;-86
2022/05/21 12:41:48;;;;;;;;;;;;;;;;;;;;;
2022/05/21 12:44:33;;;;;;;;;;;;;;;9.09;100.00;100177.59;6218429;23;20363;-94
2022/05/21 12:47:10;;;;;;;;;;;;;;;;;;;;;
2022/05/21 12:49:48;;;;;;;;;;;;;;;9.73;100.00;100176.47;6218997;23;19990;-88
2022/05/21 12:52:35;;;;;;;;;;;;;;;;;;;;;
2022/05/21 12:55:30;;;;;;;;;;;;;;;;;;;;;
2022/05/21 12:58:14;;;;;;;;;;;;;;;9.05;100.00;100173.31;6217243;23;19995;-88
2022/05/21 13:00:48;;;;;;;;;;;;;;;8.96;100.00;100182.38;6216628;23;19916;-87
2022/05/21 13:03:23;;;;;;;;;;;;;;;9.56;100.00;100162.00;6217787;23;19979;-92
2022/05/21 13:06:24;;;;;;;;;;;;;;;9.89;100.00;100159.16;6217200;23;19916;-88
2022/05/21 13:11:47;;;;;;;;;;;;;;;9.04;100.00;100161.00;6223930;23;19912;-92
2022/05/21 13:14:16;;;;;;;;;;;;;;;8.97;100.00;100164.78;6224733;23;19995;-89
2022/05/21 13:17:15;;;;;;;;;;;;;;;8.98;100.00;100158.56;6218730;23;19919;-88
2022/05/21 13:19:57;;;;;;;;;;;;;;;9.66;100.00;100154.63;6171086;23;19922;-87
2022/05/21 13:22:47;;;;;;;;;;;;;;;;;;;;;
2022/05/21 13:25:16;;;;;;;;;;;;;;;9.27;100.00;100147.09;6218399;23;19998;-92
2022/05/21 13:28:15;;;;;;;;;;;;;;;;;;;;;
2022/05/21 13:30:54;;;;;;;;;;;;;;;;;;;;;
2022/05/21 13:33:53;;;;;;;;;;;;;;;8.96;100.00;100144.53;6217358;23;19951;-92
2022/05/21 13:39:28;;;;;;;;;;;;;;;9.84;100.00;100137.25;6202568;23;19920;-89
2022/05/21 13:42:00;;;;;;;;;;;;;;;9.24;100.00;100132.19;6218194;23;19912;-94
2022/05/21 13:48:04;;;;;;;;;;;;;;;8.88;100.00;100137.69;6216243;23;19966;-91
2022/05/21 13:50:39;;;;;;;;;;;;;;;;;;;;;
2022/05/21 13:53:18;;;;;;;;;;;;;;;;;;;;;
2022/05/21 13:56:03;;;;;;;;;;;;;;;9.19;100.00;100126.19;6216691;23;19988;-92
2022/05/21 13:58:57;;;;;;;;;;;;;;;9.66;100.00;100122.03;6217659;23;19940;-88
2022/05/21 14:01:39;;;;;;;;;;;;;;;;;;;;;
2022/05/21 14:04:46;;;;;;;;;;;;;;;;;;;;;
2022/05/21 14:07:31;;;;;;;;;;;;;;;;;;;;;
2022/05/21 14:10:07;;;;;;;;;;;;;;;8.95;100.00;100105.78;6218869;23;19988;-91
2022/05/21 14:13:15;;;;;;;;;;;;;;;;;;;;;
2022/05/21 14:16:35;;;;;;;;;;;;;;;;;;;;;
2022/05/21 14:19:12;;;;;;;;;;;;;;;;;;;;;
2022/05/21 14:22:06;;;;;;;;;;;;;;;;;;;;;
2022/05/21 14:24:51;;;;;;;;;;;;;;;;;;;;;
2022/05/21 14:27:32;;;;;;;;;;;;;;;;;;;;;
2022/05/21 14:30:27;;;;;;;;;;;;;;;9.61;100.00;100069.28;6220288;23;19998;-92
2022/05/21 14:32:55;;;;;;;;;;;;;;;10.08;100.00;100071.16;6213341;23;19916;-95
2022/05/21 14:35:25;;;;;;;;;;;;;;;9.76;100.00;100067.84;6215208;23;19912;-92
2022/05/21 14:41:34;;;;;;;;;;;;;;;;;;;;;
2022/05/21 14:44:05;;;;;;;;;;;;;;;9.60;100.00;100060.44;6037826;23;19992;-90
2022/05/21 14:49:25;;;;;;;;;;;;;;;;;;;;;
2022/05/21 14:54:48;;;;;;;;;;;;;;;9.78;100.00;100058.06;6182271;23;19919;-90
2022/05/21 14:57:15;;;;;;;;;;;;;;;10.14;100.00;100041.78;6182246;23;20388;-86
2022/05/21 14:59:41;;;;;;;;;;;;;;;10.00;100.00;100032.59;6182284;23;19912;-90
2022/05/21 15:02:16;;;;;;;;;;;;;;;9.47;100.00;100043.28;6194040;23;19999;-87
2022/05/21 15:04:47;;;;;;;;;;;;;;;9.25;100.00;100029.91;6215136;23;19988;-93
2022/05/21 15:07:18;;;;;;;;;;;;;;;9.72;100.00;100035.34;6212146;23;19947;-91
2022/05/21 15:09:49;;;;;;;;;;;;;;;10.07;100.00;100021.75;6215157;23;20354;-93
2022/05/21 15:12:24;;;;;;;;;;;;;;;9.64;100.00;100025.03;6188467;23;19919;-93
2022/05/21 15:14:51;;;;;;;;;;;;;;;9.70;100.00;100023.09;6214898;23;19946;-91
2022/05/21 15:17:45;;;;;;;;;;;;;;;10.03;100.00;100020.16;6216871;23;19915;-86
2022/05/21 15:20:25;;;;;;;;;;;;;;;9.89;100.00;100018.88;6212679;23;19919;-91
2022/05/21 15:22:53;;;;;;;;;;;;;;;9.58;100.00;100013.81;6095561;23;19913;-89
2022/05/21 15:25:22;;;;;;;;;;;;;;;10.06;100.00;100009.44;6200727;23;19912;-89
2022/05/21 15:27:53;;;;;;;;;;;;;;;10.28;100.00;100005.06;6217011;23;19916;-87
2022/05/21 15:30:21;;;;;;;;;;;;;;;9.70;100.00;100002.81;6214124;23;19916;-87
2022/05/21 15:32:49;;;;;;;;;;;;;;;9.78;100.00;99999.84;6216745;23;19916;-86
2022/05/21 15:35:14;;;;;;;;;;;;;;;10.19;100.00;99992.16;6216540;23;19966;-88
2022/05/21 15:38:10;;;;;;;;;;;;;;;;;;;;;
2022/05/21 15:40:37;;;;;;;;;;;;;;;9.62;100.00;99988.97;6094489;23;19995;-87
2022/05/21 15:43:06;;;;;;;;;;;;;;;10.14;100.00;99996.78;6202408;23;19963;-89
2022/05/21 15:45:34;;;;;;;;;;;;;;;10.28;100.00;99997.13;6215823;23;19915;-86
2022/05/21 15:51:11;;;;;;;;;;;;;;;9.49;100.00;99999.13;6214512;23;20278;-88
2022/05/21 15:53:38;;;;;;;;;;;;;;;10.03;100.00;99989.25;6213658;23;19986;-88
2022/05/21 15:56:07;;;;;;;;;;;;;;;10.22;100.00;100002.66;6186943;23;19912;-86
2022/05/21 15:58:33;;;;;;;;;;;;;;;9.61;100.00;99988.09;6188607;23;20018;-84
2022/05/21 16:01:11;;;;;;;;;;;;;;;9.50;100.00;99990.28;6215096;23;19912;-88
2022/05/21 16:03:39;;;;;;;;;;;;;;;9.34;100.00;99983.81;6186218;23;19919;-85
2022/05/21 16:06:10;;;;;;;;;;;;;;;9.83;100.00;99987.34;6213445;23;19916;-89
2022/05/21 16:08:48;;;;;;;;;;;;;;;10.17;100.00;99971.03;6212095;23;19912;-87
2022/05/21 16:11:18;;;;;;;;;;;;;;;11.54;100.00;99971.72;6212931;23;20247;-86
2022/05/21 16:13:49;;;;;;;;;;;;;;;10.86;100.00;99971.91;6213315;23;19943;-85
2022/05/21 16:16:19;;;;;;;;;;;;;;;10.84;100.00;99979.06;6213151;23;19953;-84
2022/05/21 16:18:45;;;;;;;;;;;;;;;10.20;100.00;99977.16;6214250;23;19919;-85
2022/05/21 16:21:13;;;;;;;;;;;;;;;10.32;100.00;99964.34;6187434;23;20419;-86
2022/05/21 16:23:59;;;;;;;;;;;;;;;10.62;100.00;99965.84;6212747;23;19990;-86
2022/05/21 16:29:08;;;;;;;;;;;;;;;10.04;100.00;99961.00;6214215;23;19962;-87
2022/05/21 16:34:43;;;;;;;;;;;;;;;10.28;100.00;99949.44;6139965;23;19934;-84
2022/05/21 16:37:09;;;;;;;;;;;;;;;9.93;100.00;99956.97;6212822;23;20213;-85
2022/05/21 16:39:45;;;;;;;;;;;;;;;10.47;100.00;99948.78;6213608;23;19926;-87
2022/05/21 16:42:11;;;;;;;;;;;;;;;10.66;100.00;99944.44;6188048;23;19919;-86
2022/05/21 16:44:52;;;;;;;;;;;;;;;10.15;100.00;99945.56;6213914;23;19919;-87
2022/05/21 16:47:54;;;;;;;;;;;;;;;10.08;100.00;99938.75;6215248;23;19920;-86
2022/05/21 16:50:31;;;;;;;;;;;;;;;10.48;100.00;99931.94;6140757;23;19918;-88
2022/05/21 16:53:06;;;;;;;;;;;;;;;;;;;;;
2022/05/21 16:55:44;;;;;;;;;;;;;;;;;;;;;
2022/05/21 16:58:10;;;;;;;;;;;;;;;9.71;100.00;99929.56;6215635;23;19990;-86
2022/05/21 17:00:45;;;;;;;;;;;;;;;9.70;100.00;99922.53;6215279;23;19947;-88
2022/05/21 17:03:11;;;;;;;;;;;;;;;10.18;100.00;99917.19;6188388;23;19912;-91
2022/05/21 17:06:24;;;;;;;;;;;;;;;;;;;;;
2022/05/21 17:08:48;;;;;;;;;;;;;;;9.91;100.00;99915.59;6206674;23;20298;-86
2022/05/21 17:14:32;;;;;;;;;;;;;;;10.63;100.00;99909.28;6213996;23;20245;-88
2022/05/21 17:17:23;;;;;;;;;;;;;;;10.07;100.00;99905.25;6188887;23;19946;-91
2022/05/21 17:19:54;;;;;;;;;;;;;;;10.41;100.00;99909.28;6194261;23;20303;-89
2022/05/21 17:22:48;;;;;;;;;;;;;;;10.63;100.00;99907.47;6186286;23;19916;-90
2022/05/21 17:25:47;;;;;;;;;;;;;;;;;;;;;
2022/05/21 17:31:24;;;;;;;;;;;;;;;10.67;100.00;99902.91;6215517;23;20232;-90
2022/05/21 17:34:22;;;;;;;;;;;;;;;;;;;;;
2022/05/21 17:36:48;;;;;;;;;;;;;;;10.21;100.00;99899.44;6205359;23;19987;-88
2022/05/21 17:39:52;;;;;;;;;;;;;;;;;;;;;
2022/05/21 17:42:18;;;;;;;;;;;;;;;10.18;100.00;99901.28;6065023;23;20299;-86
2022/05/21 17:45:18;;;;;;;;;;;;;;;9.87;100.00;99903.41;6183579;23;19939;-94
2022/05/21 17:48:03;;;;;;;;;;;;;;;9.82;100.00;99895.63;6066681;23;19910;-90
2022/05/21 17:54:13;;;;;;;;;;;;;;;10.42;100.00;99906.56;6033900;23;19914;-89
2022/05/21 17:56:34;;;;;;;;;;;;;;;10.17;100.00;99906.66;6062690;23;19913;-89
2022/05/21 18:02:20;;;;;;;;;;;;;;;10.54;100.00;99895.44;6124022;23;19909;-91
2022/05/21 18:05:09;;;;;;;;;;;;;;;10.34;100.00;99898.06;6203405;23;20007;-93
2022/05/21 18:10:50;;;;;;;;;;;;;;;10.25;100.00;99891.31;6141262;23;20263;-89
2022/05/21 18:13:38;;;;;;;;;;;;;;;10.58;100.00;99893.56;6215038;23;19912;-94
2022/05/21 18:34:01;;;;;;;;;;;;;;;10.23;100.00;99885.22;6217243;22;19927;-92
2022/05/21 18:36:52;;;;;;;;;;;;;;;10.33;100.00;99875.16;6211033;23;19923;-93
2022/05/21 18:39:53;;;;;;;;;;;;;;;10.71;100.00;99876.22;6182191;23;19912;-95
2022/05/21 18:42:21;;;;;;;;;;;;;;;10.13;100.00;99874.13;6162403;22;19916;-88
2022/05/21 18:45:13;;;;;;;;;;;;;;;10.31;100.00;99875.19;6207000;22;19950;-93
2022/05/21 18:48:10;;;;;;;;;;;;;;;10.77;100.00;99874.22;6246395;23;19966;-94
2022/05/21 18:50:36;;;;;;;;;;;;;;;10.18;100.00;99882.75;6212512;23;20312;-93
2022/05/21 18:53:10;;;;;;;;;;;;;;;10.32;100.00;99874.31;6201008;23;19931;-91
2022/05/21 19:56:25;;;;;;;;;;;;;;;9.79;100.00;99903.69;6206660;22;19930;-90
2022/05/21 19:59:15;;;;;;;;;;;;;;;10.34;100.00;99909.53;6221193;23;19935;-92
2022/05/21 20:02:27;;;;;;;;;;;;;;;10.80;100.00;99911.19;6216975;23;19912;-93
2022/05/21 20:19:09;;;;;;;;;;;;;;;11.39;100.00;99910.44;6155018;23;19917;-94
2022/05/21 20:25:10;;;;;;;;;;;;;;;11.16;100.00;99913.22;6123329;22;19916;-92
2022/05/21 20:28:05;;;;;;;;;;;;;;;11.23;100.00;99914.69;6101584;23;19924;-88
2022/05/21 20:34:53;;;;;;;;;;;;;;;;;;;;;
2022/05/21 20:37:05;;;;;;;;;;;;;;;10.50;100.00;99914.22;6015793;23;20273;-90
2022/05/21 20:46:17;;;;;;;;;;;;;;;;;;;;;
2022/05/21 20:51:45;;;;;;;;;;;;;;;10.68;100.00;99908.13;6219724;23;19919;-90
2022/05/21 20:54:11;;;;;;;;;;;;;;;11.09;100.00;99913.50;6217372;23;19995;-91
2022/05/21 21:08:22;;;;;;;;;;;;;;;10.10;100.00;99913.09;6212007;23;19911;-90
2022/05/21 21:10:48;;;;;;;;;;;;;;;10.08;100.00;99918.44;6220327;23;19976;-92
2022/05/21 21:13:26;;;;;;;;;;;;;;;10.21;100.00;99913.56;6219344;23;20228;-96
2022/05/21 21:16:18;;;;;;;;;;;;;;;;;;;;;
2022/05/21 21:18:44;;;;;;;;;;;;;;;10.02;100.00;99915.16;6218869;23;20308;-89
2022/05/21 21:27:34;;;;;;;;;;;;;;;9.93;100.00;99911.97;6217411;23;19920;-94
2022/05/21 21:32:31;;;;;;;;;;;;;;;9.82;100.00;99922.09;6203571;23;19911;-93
2022/05/21 21:35:00;;;;;;;;;;;;;;;10.21;100.00;99912.66;6220128;23;19919;-91
2022/05/21 21:37:28;;;;;;;;;;;;;;;10.10;100.00;99910.44;6217303;23;19912;-90
2022/05/21 21:40:01;;;;;;;;;;;;;;;9.99;100.00;99909.09;6213315;23;19916;-89
2022/05/21 21:42:34;;;;;;;;;;;;;;;9.95;100.00;99893.38;6189090;23;19912;-90
2022/05/21 21:45:26;;;;;;;;;;;;;;;9.90;100.00;99890.06;6217057;23;19912;-92
2022/05/21 21:48:21;;;;;;;;;;;;;;;9.95;100.00;99898.66;6207859;23;20304;-92
2022/05/21 21:50:54;;;;;;;;;;;;;;;9.96;100.00;99893.31;6218432;23;19926;-92
2022/05/21 21:53:29;;;;;;;;;;;;;;;10.00;100.00;99884.34;6214593;23;19912;-93
2022/05/21 21:55:56;;;;;;;;;;;;;;;9.84;100.00;99883.19;6215906;23;19979;-90
2022/05/21 22:01:56;;;;;;;;;;;;;;;9.83;100.00;99876.19;6102801;23;19920;-92
2022/05/21 22:04:34;;;;;;;;;;;;;;;9.79;100.00;99875.44;6074080;23;19913;-95